createdAt,value
2018-12-15T00:01:54.719Z,9.03
2018-12-15T00:04:23.486Z,9.60
2018-12-15T00:06:51.952Z,8.80
2018-12-15T00:09:20.520Z,9.00
2018-12-15T00:11:50.234Z,9.67
2018-12-15T00:14:19.567Z,9.17
2018-12-15T00:16:48.377Z,10.40
2018-12-15T00:19:18.869Z,9.23
2018-12-15T00:21:47.304Z,9.93
2018-12-15T00:24:16.566Z,9.97
2018-12-15T00:26:45.267Z,9.77
2018-12-15T00:29:15.120Z,8.80
2018-12-15T00:31:45.333Z,9.47
2018-12-15T00:34:14.415Z,9.40
2018-12-15T00:36:43.594Z,9.17
2018-12-15T00:39:13.122Z,9.83
2018-12-15T00:41:44.167Z,8.73
2018-12-15T00:44:14.521Z,9.70
2018-12-15T00:46:43.360Z,9.20
2018-12-15T00:49:11.810Z,9.33
2018-12-15T00:51:42.371Z,9.73
2018-12-15T00:54:13.475Z,9.17
2018-12-15T00:56:42.633Z,9.47
2018-12-15T00:59:11.718Z,9.30
2018-12-15T01:01:41.812Z,9.20
2018-12-15T01:04:10.716Z,9.50
2018-12-15T01:06:40.704Z,9.10
2018-12-15T01:09:09.952Z,9.53
2018-12-15T01:11:38.690Z,9.67
2018-12-15T01:14:07.390Z,9.23
2018-12-15T01:16:36.257Z,9.70
2018-12-15T01:19:05.534Z,9.27
2018-12-15T01:21:34.280Z,9.60
2018-12-15T01:24:02.733Z,9.77
2018-12-15T01:26:34.980Z,10.03
2018-12-15T01:29:04.068Z,8.60
2018-12-15T01:31:32.551Z,9.17
2018-12-15T01:34:02.756Z,9.33
2018-12-15T01:36:32.417Z,9.93
2018-12-15T01:39:00.875Z,10.03
2018-12-15T01:41:30.869Z,10.23
2018-12-15T01:44:00.393Z,11.03
2018-12-15T01:46:28.887Z,10.87
2018-12-15T01:48:58.750Z,10.73
2018-12-15T01:51:27.213Z,10.73
2018-12-15T01:53:55.635Z,10.57
2018-12-15T01:56:25.326Z,10.70
2018-12-15T01:58:53.785Z,9.70
2018-12-15T02:01:22.392Z,9.17
2018-12-15T02:03:51.490Z,9.37
2018-12-15T02:06:21.448Z,9.67
2018-12-15T02:08:50.175Z,9.23
2018-12-15T02:11:19.630Z,10.20
2018-12-15T02:13:48.123Z,10.07
2018-12-15T02:16:16.558Z,8.97
2018-12-15T02:18:46.884Z,9.07
2018-12-15T02:21:16.149Z,8.70
2018-12-15T02:23:44.868Z,9.10
2018-12-15T02:26:15.479Z,9.70
2018-12-15T02:28:43.920Z,9.60
2018-12-15T02:31:12.362Z,9.60
2018-12-15T02:33:41.417Z,10.30
2018-12-15T02:36:10.197Z,10.50
2018-12-15T02:38:39.574Z,10.53
2018-12-15T02:41:08.411Z,10.33
2018-12-15T02:43:37.350Z,10.00
2018-12-15T02:46:06.496Z,10.90
2018-12-15T02:48:35.189Z,10.30
2018-12-15T02:51:04.270Z,9.93
2018-12-15T02:53:33.674Z,10.37
2018-12-15T02:56:03.699Z,11.07
2018-12-15T02:58:34.219Z,9.90
2018-12-15T03:01:03.679Z,10.93
2018-12-15T03:03:32.587Z,11.07
2018-12-15T03:06:01.243Z,9.83
2018-12-15T03:08:30.129Z,9.53
2018-12-15T03:10:58.562Z,9.47
2018-12-15T03:13:27.030Z,9.57
2018-12-15T03:15:57.355Z,10.73
2018-12-15T03:18:27.357Z,9.50
2018-12-15T03:21:01.784Z,10.33
2018-12-15T03:23:31.928Z,10.67
2018-12-15T03:26:01.092Z,11.40
2018-12-15T03:28:30.952Z,10.17
2018-12-15T03:30:59.446Z,11.50
2018-12-15T03:33:28.621Z,10.53
2018-12-15T03:35:57.496Z,10.53
2018-12-15T03:38:26.932Z,10.40
2018-12-15T03:40:56.421Z,10.37
2018-12-15T03:46:11.198Z,11.33
2018-12-15T03:48:40.455Z,11.70
2018-12-15T03:51:09.578Z,11.23
2018-12-15T03:53:38.640Z,10.77
2018-12-15T03:56:07.306Z,11.10
2018-12-15T03:58:37.251Z,10.37
2018-12-15T04:01:06.256Z,11.27
2018-12-15T04:03:34.742Z,11.60
2018-12-15T04:06:04.645Z,11.13
2018-12-15T04:08:34.310Z,11.00
2018-12-15T04:11:02.769Z,10.93
2018-12-15T04:13:31.541Z,10.30
2018-12-15T04:16:00.700Z,10.80
2018-12-15T04:18:30.008Z,10.33
2018-12-15T04:20:59.464Z,10.43
2018-12-15T04:23:28.481Z,10.80
2018-12-15T04:25:57.712Z,11.07
2018-12-15T04:28:26.750Z,9.50
2018-12-15T04:30:57.567Z,9.90
2018-12-15T04:33:25.997Z,11.53
2018-12-15T04:35:54.432Z,10.80
2018-12-15T04:38:24.710Z,11.77
2018-12-15T04:40:53.181Z,11.60
2018-12-15T04:43:23.394Z,11.13
2018-12-15T04:45:54.202Z,11.07
2018-12-15T04:48:23.063Z,11.10
2018-12-15T04:50:53.803Z,11.03
2018-12-15T04:53:23.154Z,11.67
2018-12-15T04:55:52.483Z,11.57
2018-12-15T04:58:20.907Z,11.43
2018-12-15T05:00:50.664Z,11.87
2018-12-15T05:03:22.888Z,11.50
2018-12-15T05:05:53.405Z,12.67
2018-12-15T05:08:21.871Z,12.20
2018-12-15T05:10:51.150Z,12.27
2018-12-15T05:13:20.268Z,11.87
2018-12-15T05:15:49.272Z,12.00
2018-12-15T05:18:19.144Z,11.83
2018-12-15T05:20:48.483Z,11.47
2018-12-15T05:23:17.354Z,10.63
2018-12-15T05:25:47.417Z,10.30
2018-12-15T05:28:15.828Z,10.13
2018-12-15T05:30:44.274Z,9.60
2018-12-15T05:33:12.691Z,9.90
2018-12-15T05:35:41.135Z,10.00
2018-12-15T05:38:11.149Z,9.63
2018-12-15T05:40:40.718Z,9.07
2018-12-15T05:43:10.175Z,9.63
2018-12-15T05:45:40.142Z,10.60
2018-12-15T05:48:10.106Z,9.67
2018-12-15T05:50:38.538Z,10.90
2018-12-15T05:53:07.003Z,11.27
2018-12-15T05:55:35.475Z,11.57
2018-12-15T05:58:04.909Z,11.17
2018-12-15T06:00:33.564Z,12.00
2018-12-15T06:03:03.015Z,11.50
2018-12-15T06:05:33.094Z,11.47
2018-12-15T06:08:01.538Z,12.03
2018-12-15T06:10:31.355Z,11.93
2018-12-15T06:13:01.347Z,11.30
2018-12-15T06:15:30.895Z,10.47
2018-12-15T06:18:00.711Z,10.87
2018-12-15T06:20:29.884Z,10.07
2018-12-15T06:22:58.362Z,10.10
2018-12-15T06:25:27.237Z,10.73
2018-12-15T06:27:56.347Z,10.40
2018-12-15T06:30:24.805Z,10.37
2018-12-15T06:32:53.286Z,10.23
2018-12-15T06:35:22.685Z,11.60
2018-12-15T06:37:51.881Z,14.83
2018-12-15T06:40:20.717Z,10.17
2018-12-15T06:42:49.535Z,11.23
2018-12-15T06:45:19.381Z,10.27
2018-12-15T06:47:48.803Z,10.27
2018-12-15T06:50:17.800Z,10.60
2018-12-15T06:52:50.346Z,10.60
2018-12-15T06:55:20.429Z,11.23
2018-12-15T06:57:52.576Z,10.97
2018-12-15T07:00:26.938Z,10.77
2018-12-15T07:03:08.101Z,11.57
2018-12-15T07:05:45.743Z,10.43
2018-12-15T07:08:27.814Z,10.87
2018-12-15T07:11:00.696Z,10.50
2018-12-15T07:13:30.841Z,10.90
2018-12-15T07:16:05.886Z,10.77
2018-12-15T07:18:46.490Z,11.30
2018-12-15T07:21:15.925Z,11.50
2018-12-15T07:23:45.538Z,10.20
2018-12-15T07:26:19.022Z,11.43
2018-12-15T07:28:57.377Z,12.23
2018-12-15T07:31:31.702Z,13.07
2018-12-15T07:34:05.372Z,13.20
2018-12-15T07:39:16.330Z,11.67
2018-12-15T07:41:53.565Z,13.10
2018-12-15T07:44:27.238Z,11.90
2018-12-15T07:46:57.248Z,12.13
2018-12-15T07:49:26.762Z,12.50
2018-12-15T07:51:58.538Z,12.57
2018-12-15T07:54:31.013Z,13.37
2018-12-15T07:57:00.469Z,12.93
2018-12-15T07:59:34.134Z,13.07
2018-12-15T08:02:12.978Z,11.60
2018-12-15T08:04:46.850Z,10.57
2018-12-15T08:07:21.591Z,10.27
2018-12-15T08:09:59.891Z,11.10
2018-12-15T08:12:39.917Z,11.60
2018-12-15T08:15:12.570Z,10.30
2018-12-15T08:17:41.913Z,11.43
2018-12-15T08:20:11.288Z,9.97
2018-12-15T08:22:40.554Z,10.00
2018-12-15T08:25:10.792Z,11.13
2018-12-15T08:27:40.869Z,9.73
2018-12-15T08:30:23.452Z,10.67
2018-12-15T08:32:52.759Z,10.63
2018-12-15T08:35:29.696Z,10.53
2018-12-15T08:38:10.139Z,9.27
2018-12-15T08:41:02.102Z,9.50
2018-12-15T08:43:45.414Z,10.90
2018-12-15T08:46:18.795Z,11.40
2018-12-15T08:48:56.637Z,10.67
2018-12-15T08:51:32.628Z,10.73
2018-12-15T08:54:07.834Z,11.27
2018-12-15T08:56:39.827Z,11.33
2018-12-15T08:59:20.303Z,10.73
2018-12-15T09:01:55.279Z,10.40
2018-12-15T09:04:29.869Z,12.97
2018-12-15T09:07:03.754Z,12.27
2018-12-15T09:09:32.360Z,11.20
2018-12-15T09:12:00.801Z,11.20
2018-12-15T09:14:33.254Z,12.97
2018-12-15T09:17:02.654Z,11.60
2018-12-15T09:19:31.097Z,12.83
2018-12-15T09:21:59.914Z,17.50
2018-12-15T09:24:28.845Z,10.53
2018-12-15T09:26:58.847Z,12.37
2018-12-15T09:29:27.704Z,14.90
2018-12-15T09:31:58.073Z,11.67
2018-12-15T09:34:29.191Z,13.13
2018-12-15T09:36:59.396Z,15.93
2018-12-15T09:39:29.584Z,13.43
2018-12-15T09:42:00.345Z,13.67
2018-12-15T09:44:29.918Z,14.47
2018-12-15T09:47:02.482Z,12.27
2018-12-15T09:49:37.191Z,12.60
2018-12-15T09:52:10.205Z,11.30
2018-12-15T09:54:39.686Z,10.27
2018-12-15T09:57:10.884Z,11.30
2018-12-15T09:59:42.431Z,11.30
2018-12-15T10:02:11.622Z,15.33
2018-12-15T10:04:40.429Z,11.47
2018-12-15T10:07:09.165Z,11.60
2018-12-15T10:09:38.857Z,10.23
2018-12-15T10:12:09.017Z,10.07
2018-12-15T10:14:41.839Z,11.70
2018-12-15T10:17:14.604Z,11.13
2018-12-15T10:19:43.989Z,10.57
2018-12-15T10:22:13.186Z,10.77
2018-12-15T10:24:41.980Z,10.53
2018-12-15T10:27:10.447Z,10.40
2018-12-15T10:29:44.281Z,9.80
2018-12-15T10:32:17.810Z,12.97
2018-12-15T10:34:46.260Z,10.57
2018-12-15T10:37:15.973Z,11.80
2018-12-15T10:39:45.393Z,11.43
2018-12-15T10:42:24.840Z,12.87
2018-12-15T10:44:54.315Z,13.13
2018-12-15T10:47:28.707Z,13.20
2018-12-15T10:49:58.883Z,24.63
2018-12-15T10:52:31.203Z,19.10
2018-12-15T10:54:59.663Z,14.80
2018-12-15T10:57:28.195Z,10.33
2018-12-15T10:59:57.568Z,11.33
2018-12-15T11:02:26.802Z,11.10
2018-12-15T11:04:55.267Z,10.50
2018-12-15T11:07:23.721Z,11.53
2018-12-15T11:09:52.822Z,13.87
2018-12-15T11:12:21.729Z,9.97
2018-12-15T11:14:50.896Z,10.70
2018-12-15T11:17:22.927Z,10.23
2018-12-15T11:19:51.393Z,10.27
2018-12-15T11:22:20.090Z,11.93
2018-12-15T11:24:49.596Z,10.37
2018-12-15T11:27:18.726Z,10.90
2018-12-15T11:29:47.180Z,10.10
2018-12-15T11:32:16.343Z,11.10
2018-12-15T11:34:45.024Z,12.97
2018-12-15T11:37:14.328Z,11.37
2018-12-15T11:39:42.811Z,12.80
2018-12-15T11:42:11.632Z,13.07
2018-12-15T11:44:40.129Z,12.83
2018-12-15T11:47:08.948Z,13.00
2018-12-15T11:49:43.507Z,12.63
2018-12-15T11:52:08.165Z,12.30
2018-12-15T11:54:36.845Z,12.97
2018-12-15T11:57:05.272Z,11.00
2018-12-15T11:59:34.062Z,10.23
2018-12-15T12:02:02.713Z,10.57
2018-12-15T12:04:31.200Z,11.40
2018-12-15T12:06:59.674Z,12.33
2018-12-15T12:09:28.369Z,12.40
2018-12-15T12:11:57.362Z,12.30
2018-12-15T12:14:25.824Z,11.73
2018-12-15T12:16:54.269Z,10.87
2018-12-15T12:19:23.737Z,9.07
2018-12-15T12:21:52.884Z,9.57
2018-12-15T12:24:21.313Z,11.37
2018-12-15T12:26:49.795Z,9.77
2018-12-15T12:29:18.809Z,12.43
2018-12-15T12:31:47.251Z,8.73
2018-12-15T12:34:16.079Z,9.80
2018-12-15T12:36:44.958Z,9.93
2018-12-15T12:39:14.266Z,9.80
2018-12-15T12:41:42.715Z,9.70
2018-12-15T12:44:12.078Z,9.63
2018-12-15T12:46:40.743Z,9.27
2018-12-15T12:49:09.206Z,9.17
2018-12-15T12:51:38.704Z,8.77
2018-12-15T12:54:07.168Z,8.90
2018-12-15T12:56:35.655Z,9.67
2018-12-15T12:59:04.528Z,9.43
2018-12-15T13:01:39.258Z,9.37
2018-12-15T13:04:07.752Z,8.83
2018-12-15T13:06:38.647Z,8.60
2018-12-15T13:09:20.383Z,8.50
2018-12-15T13:11:52.533Z,9.23
2018-12-15T13:14:21.064Z,8.67
2018-12-15T13:16:50.032Z,8.97
2018-12-15T13:19:18.807Z,8.97
2018-12-15T13:21:51.515Z,8.90
2018-12-15T13:24:19.974Z,8.40
2018-12-15T13:26:50.019Z,8.20
2018-12-15T13:29:23.312Z,9.17
2018-12-15T13:31:53.712Z,9.20
2018-12-15T13:34:25.120Z,8.60
2018-12-15T13:36:54.635Z,9.03
2018-12-15T13:39:23.119Z,8.43
2018-12-15T13:41:51.635Z,9.07
2018-12-15T13:44:20.499Z,9.20
2018-12-15T13:46:49.437Z,8.73
2018-12-15T13:49:18.277Z,9.33
2018-12-15T13:51:46.761Z,9.43
2018-12-15T13:54:18.289Z,9.37
2018-12-15T13:56:47.260Z,9.27
2018-12-15T13:59:23.975Z,9.50
2018-12-15T14:01:54.536Z,12.37
2018-12-15T14:04:26.669Z,8.87
2018-12-15T14:06:59.353Z,11.17
2018-12-15T14:09:28.804Z,10.90
2018-12-15T14:12:00.154Z,10.80
2018-12-15T14:14:30.592Z,10.30
2018-12-15T14:17:13.071Z,9.90
2018-12-15T14:19:49.508Z,8.37
2018-12-15T14:22:18.598Z,8.07
2018-12-15T14:24:48.521Z,8.40
2018-12-15T14:27:19.741Z,9.67
2018-12-15T14:29:50.367Z,9.77
2018-12-15T14:32:20.266Z,10.93
2018-12-15T14:34:54.610Z,8.83
2018-12-15T14:37:23.950Z,8.90
2018-12-15T14:39:59.429Z,8.43
2018-12-15T14:43:00.443Z,8.67
2018-12-15T14:45:31.797Z,7.97
2018-12-15T14:48:08.859Z,7.90
2018-12-15T14:50:37.954Z,7.43
2018-12-15T14:53:08.812Z,8.50
2018-12-15T14:55:38.746Z,8.73
2018-12-15T14:58:09.871Z,8.23
2018-12-15T15:00:38.541Z,8.83
2018-12-15T15:03:08.170Z,9.63
2018-12-15T15:05:37.533Z,7.40
2018-12-15T15:08:08.626Z,8.07
2018-12-15T15:10:37.805Z,8.67
2018-12-15T15:13:06.411Z,9.63
2018-12-15T15:15:35.532Z,8.63
2018-12-15T15:18:17.922Z,8.67
2018-12-15T15:20:48.587Z,8.13
2018-12-15T15:23:19.057Z,7.33
2018-12-15T15:25:48.089Z,7.57
2018-12-15T15:28:17.255Z,8.40
2018-12-15T15:30:46.072Z,8.60
2018-12-15T15:33:14.514Z,8.07
2018-12-15T15:35:42.970Z,7.80
2018-12-15T15:38:11.447Z,8.03
2018-12-15T15:40:39.924Z,8.67
2018-12-15T15:43:09.742Z,9.70
2018-12-15T15:45:42.132Z,7.87
2018-12-15T15:48:13.448Z,8.40
2018-12-15T15:50:46.819Z,7.80
2018-12-15T15:53:24.967Z,7.63
2018-12-15T15:55:57.870Z,8.43
2018-12-15T15:58:32.254Z,8.93
2018-12-15T16:01:03.775Z,9.60
2018-12-15T16:03:36.029Z,9.03
2018-12-15T16:06:07.355Z,9.00
2018-12-15T16:08:37.963Z,9.17
2018-12-15T16:11:09.523Z,10.47
2018-12-15T16:13:40.698Z,10.30
2018-12-15T16:16:42.156Z,9.57
2018-12-15T16:19:13.396Z,9.33
2018-12-15T16:21:50.482Z,9.20
2018-12-15T16:24:21.347Z,9.13
2018-12-15T16:26:57.227Z,9.97
2018-12-15T16:29:29.455Z,9.17
2018-12-15T16:32:00.417Z,8.57
2018-12-15T16:34:32.013Z,8.03
2018-12-15T16:37:03.134Z,7.70
2018-12-15T16:39:33.665Z,7.13
2018-12-15T16:42:05.736Z,7.40
2018-12-15T16:44:37.735Z,8.43
2018-12-15T16:47:06.305Z,7.60
2018-12-15T16:49:35.010Z,7.97
2018-12-15T16:52:03.544Z,7.87
2018-12-15T16:54:31.990Z,6.97
2018-12-15T16:57:00.869Z,8.87
2018-12-15T16:59:29.407Z,7.37
2018-12-15T17:01:59.103Z,7.30
2018-12-15T17:04:27.561Z,9.37
2018-12-15T17:06:56.004Z,7.97
2018-12-15T17:09:24.470Z,7.60
2018-12-15T17:11:53.925Z,8.00
2018-12-15T17:14:22.563Z,8.60
2018-12-15T17:16:51.471Z,9.93
2018-12-15T17:19:20.396Z,9.10
2018-12-15T17:21:49.687Z,7.80
2018-12-15T17:24:18.220Z,8.67
2018-12-15T17:26:46.892Z,8.40
2018-12-15T17:29:16.579Z,8.53
2018-12-15T17:31:45.574Z,7.20
2018-12-15T17:34:14.196Z,7.50
2018-12-15T17:36:43.056Z,8.27
2018-12-15T17:39:11.788Z,8.87
2018-12-15T17:41:40.222Z,8.23
2018-12-15T17:44:10.861Z,7.93
2018-12-15T17:46:45.541Z,8.47
2018-12-15T17:49:19.468Z,7.83
2018-12-15T17:51:53.769Z,8.20
2018-12-15T17:54:25.018Z,8.07
2018-12-15T17:56:58.192Z,7.60
2018-12-15T17:59:27.988Z,7.97
2018-12-15T18:01:58.066Z,6.97
2018-12-15T18:04:26.756Z,7.40
2018-12-15T18:07:01.548Z,7.20
2018-12-15T18:09:30.617Z,7.80
2018-12-15T18:12:02.045Z,8.03
2018-12-15T18:14:31.186Z,7.97
2018-12-15T18:17:00.727Z,7.30
2018-12-15T18:19:30.296Z,7.87
2018-12-15T18:22:00.388Z,8.23
2018-12-15T18:24:29.531Z,8.07
2018-12-15T18:27:03.817Z,7.67
2018-12-15T18:29:34.356Z,7.40
2018-12-15T18:32:04.166Z,6.70
2018-12-15T18:34:32.751Z,7.13
2018-12-15T18:37:01.552Z,7.37
2018-12-15T18:39:31.299Z,7.37
2018-12-15T18:42:00.126Z,7.03
2018-12-15T18:44:28.629Z,7.10
2018-12-15T18:46:58.145Z,7.73
2018-12-15T18:49:39.570Z,8.20
2018-12-15T18:52:13.055Z,8.00
2018-12-15T18:54:43.347Z,7.27
2018-12-15T18:57:12.737Z,7.50
2018-12-15T18:59:42.206Z,7.43
2018-12-15T19:02:11.969Z,7.40
2018-12-15T19:04:41.346Z,7.80
2018-12-15T19:07:10.059Z,7.80
2018-12-15T19:09:39.851Z,8.70
2018-12-15T19:12:08.448Z,7.83
2018-12-15T19:14:37.022Z,7.30
2018-12-15T19:17:06.044Z,7.67
2018-12-15T19:19:34.986Z,7.60
2018-12-15T19:22:05.859Z,8.30
2018-12-15T19:24:34.563Z,8.00
2018-12-15T19:27:05.936Z,8.17
2018-12-15T19:29:36.514Z,8.07
2018-12-15T19:32:05.947Z,8.20
2018-12-15T19:34:36.176Z,7.80
2018-12-15T19:37:05.624Z,7.90
2018-12-15T19:39:35.246Z,8.30
2018-12-15T19:42:03.844Z,7.70
2018-12-15T19:44:34.664Z,10.87
2018-12-15T19:47:04.049Z,9.80
2018-12-15T19:49:35.313Z,9.50
2018-12-15T19:52:06.168Z,8.23
2018-12-15T19:54:35.914Z,8.50
2018-12-15T19:57:10.094Z,7.87
2018-12-15T19:59:39.801Z,7.83
2018-12-15T20:02:08.728Z,8.13
2018-12-15T20:04:41.064Z,8.13
2018-12-15T20:07:09.901Z,8.43
2018-12-15T20:09:39.007Z,7.33
2018-12-15T20:12:08.533Z,8.17
2018-12-15T20:14:38.080Z,8.03
2018-12-15T20:17:07.939Z,8.20
2018-12-15T20:19:36.771Z,8.20
2018-12-15T20:22:05.415Z,9.07
2018-12-15T20:24:47.579Z,8.10
2018-12-15T20:27:18.462Z,8.43
2018-12-15T20:29:48.773Z,8.90
2018-12-15T20:32:20.118Z,8.27
2018-12-15T20:34:52.077Z,8.03
2018-12-15T20:37:23.849Z,8.80
2018-12-15T20:39:56.577Z,9.13
2018-12-15T20:42:29.136Z,8.83
2018-12-15T20:44:58.017Z,10.63
2018-12-15T20:47:27.999Z,9.07
2018-12-15T20:50:04.901Z,9.47
2018-12-15T20:52:34.427Z,9.53
2018-12-15T20:55:05.009Z,9.90
2018-12-15T20:57:36.611Z,8.53
2018-12-15T21:00:08.975Z,9.07
2018-12-15T21:02:43.670Z,8.33
2018-12-15T21:05:19.873Z,7.93
2018-12-15T21:07:49.542Z,8.47
2018-12-15T21:10:19.258Z,9.33
2018-12-15T21:12:51.547Z,9.50
2018-12-15T21:15:25.055Z,9.00
2018-12-15T21:17:57.202Z,8.47
2018-12-15T21:20:26.458Z,9.13
2018-12-15T21:22:55.538Z,9.53
2018-12-15T21:25:25.476Z,9.70
2018-12-15T21:27:55.095Z,9.77
2018-12-15T21:30:24.615Z,9.30
2018-12-15T21:32:54.358Z,9.47
2018-12-15T21:35:22.833Z,9.63
2018-12-15T21:37:58.550Z,9.13
2018-12-15T21:40:27.278Z,8.83
2018-12-15T21:42:55.766Z,8.37
2018-12-15T21:45:24.890Z,8.97
2018-12-15T21:47:57.586Z,9.23
2018-12-15T21:50:24.241Z,9.67
2018-12-15T21:52:52.725Z,9.60
2018-12-15T21:55:21.158Z,9.37
2018-12-15T21:57:49.603Z,8.83
2018-12-15T22:00:18.675Z,8.53
2018-12-15T22:02:48.635Z,8.70
2018-12-15T22:05:18.297Z,7.77
2018-12-15T22:07:48.005Z,9.10
2018-12-15T22:10:16.491Z,8.57
2018-12-15T22:12:45.692Z,9.10
2018-12-15T22:15:15.687Z,9.03
2018-12-15T22:17:45.081Z,9.37
2018-12-15T22:20:14.297Z,10.03
2018-12-15T22:22:43.629Z,9.53
2018-12-15T22:25:12.981Z,10.77
2018-12-15T22:27:41.439Z,10.80
2018-12-15T22:30:11.396Z,11.77
2018-12-15T22:32:40.703Z,11.00
2018-12-15T22:35:09.588Z,11.47
2018-12-15T22:37:38.798Z,11.37
2018-12-15T22:40:08.886Z,11.10
2018-12-15T22:42:38.242Z,10.93
2018-12-15T22:45:07.323Z,10.50
2018-12-15T22:47:35.770Z,10.93
2018-12-15T22:50:06.543Z,10.97
2018-12-15T22:52:35.594Z,11.10
2018-12-15T22:55:05.200Z,11.30
2018-12-15T22:57:33.629Z,10.77
2018-12-15T23:00:02.443Z,10.93
2018-12-15T23:02:32.072Z,10.03
2018-12-15T23:05:00.662Z,11.27
2018-12-15T23:07:30.149Z,11.57
2018-12-15T23:09:59.200Z,11.33
2018-12-15T23:12:28.824Z,10.57
2018-12-15T23:14:57.290Z,10.70
2018-12-15T23:17:25.739Z,9.70
2018-12-15T23:19:54.621Z,10.63
2018-12-15T23:22:23.078Z,9.33
2018-12-15T23:24:51.558Z,9.50
2018-12-15T23:27:20.461Z,8.77
2018-12-15T23:29:48.966Z,9.40
2018-12-15T23:32:19.643Z,8.53
2018-12-15T23:34:48.104Z,9.07
2018-12-15T23:37:16.903Z,10.33
2018-12-15T23:39:45.604Z,9.70
2018-12-15T23:42:14.978Z,9.70
2018-12-15T23:44:43.533Z,9.63
2018-12-15T23:47:11.964Z,9.53
2018-12-15T23:49:41.338Z,9.23
2018-12-15T23:52:10.441Z,10.20
2018-12-15T23:54:39.262Z,9.57
2018-12-15T23:57:09.744Z,9.63
2018-12-15T23:59:38.174Z,9.73
